sensor_id;sensor_type;location;lat;lon;timestamp;P1;durP1;ratioP1;P2;durP2;ratioP2
42616;SDS011;28250;52.320;0.360;2023-08-17T00:00:34;9.07;;;5.50;;
42616;SDS011;28250;52.320;0.360;2023-08-17T00:03:00;23.17;;;11.63;;
42616;SDS011;28250;52.320;0.360;2023-08-17T00:05:28;25.80;;;11.95;;
42616;SDS011;28250;52.320;0.360;2023-08-17T00:07:55;24.43;;;12.17;;
42616;SDS011;28250;52.320;0.360;2023-08-17T00:10:21;33.67;;;14.25;;
42616;SDS011;28250;52.320;0.360;2023-08-17T00:12:47;33.67;;;16.80;;
42616;SDS011;28250;52.320;0.360;2023-08-17T00:15:13;44.47;;;20.07;;
42616;SDS011;28250;52.320;0.360;2023-08-17T00:17:39;32.28;;;15.73;;
42616;SDS011;28250;52.320;0.360;2023-08-17T00:20:06;30.10;;;13.68;;
42616;SDS011;28250;52.320;0.360;2023-08-17T00:22:35;15.70;;;8.45;;
42616;SDS011;28250;52.320;0.360;2023-08-17T00:25:02;24.20;;;11.75;;
42616;SDS011;28250;52.320;0.360;2023-08-17T00:27:34;14.38;;;7.93;;
42616;SDS011;28250;52.320;0.360;2023-08-17T00:30:00;14.60;;;7.25;;
42616;SDS011;28250;52.320;0.360;2023-08-17T00:32:26;14.93;;;6.43;;
42616;SDS011;28250;52.320;0.360;2023-08-17T00:34:52;9.77;;;5.43;;
42616;SDS011;28250;52.320;0.360;2023-08-17T00:37:19;10.63;;;5.03;;
42616;SDS011;28250;52.320;0.360;2023-08-17T00:39:45;11.70;;;5.10;;
42616;SDS011;28250;52.320;0.360;2023-08-17T00:42:11;10.55;;;4.68;;
42616;SDS011;28250;52.320;0.360;2023-08-17T00:44:37;9.07;;;4.90;;
42616;SDS011;28250;52.320;0.360;2023-08-17T00:47:03;6.28;;;4.32;;
42616;SDS011;28250;52.320;0.360;2023-08-17T00:49:30;11.98;;;5.38;;
42616;SDS011;28250;52.320;0.360;2023-08-17T00:51:56;13.97;;;6.20;;
42616;SDS011;28250;52.320;0.360;2023-08-17T00:54:25;11.07;;;5.82;;
42616;SDS011;28250;52.320;0.360;2023-08-17T00:56:54;8.25;;;5.70;;
42616;SDS011;28250;52.320;0.360;2023-08-17T00:59:21;10.23;;;5.55;;
42616;SDS011;28250;52.320;0.360;2023-08-17T01:01:48;10.73;;;6.18;;
42616;SDS011;28250;52.320;0.360;2023-08-17T01:04:14;10.13;;;5.40;;
42616;SDS011;28250;52.320;0.360;2023-08-17T01:06:41;9.00;;;5.22;;
42616;SDS011;28250;52.320;0.360;2023-08-17T01:09:07;8.48;;;4.85;;
42616;SDS011;28250;52.320;0.360;2023-08-17T01:20:22;7.60;;;4.28;;
42616;SDS011;28250;52.320;0.360;2023-08-17T01:22:50;8.68;;;4.10;;
42616;SDS011;28250;52.320;0.360;2023-08-17T01:25:18;8.32;;;5.38;;
42616;SDS011;28250;52.320;0.360;2023-08-17T01:27:45;5.22;;;4.03;;
42616;SDS011;28250;52.320;0.360;2023-08-17T01:30:12;7.20;;;5.13;;
42616;SDS011;28250;52.320;0.360;2023-08-17T01:36:25;13.77;;;4.50;;
42616;SDS011;28250;52.320;0.360;2023-08-17T01:38:43;11.02;;;4.32;;
42616;SDS011;28250;52.320;0.360;2023-08-17T01:41:11;8.90;;;6.10;;
42616;SDS011;28250;52.320;0.360;2023-08-17T01:43:41;10.98;;;6.13;;
42616;SDS011;28250;52.320;0.360;2023-08-17T01:46:16;10.07;;;5.38;;
42616;SDS011;28250;52.320;0.360;2023-08-17T01:48:43;10.15;;;5.53;;
42616;SDS011;28250;52.320;0.360;2023-08-17T01:51:11;10.40;;;5.75;;
42616;SDS011;28250;52.320;0.360;2023-08-17T01:53:44;11.60;;;5.53;;
42616;SDS011;28250;52.320;0.360;2023-08-17T01:56:10;7.60;;;4.70;;
42616;SDS011;28250;52.320;0.360;2023-08-17T01:58:37;8.35;;;5.03;;
42616;SDS011;28250;52.320;0.360;2023-08-17T02:01:04;9.88;;;4.65;;
42616;SDS011;28250;52.320;0.360;2023-08-17T02:03:30;10.88;;;5.93;;
42616;SDS011;28250;52.320;0.360;2023-08-17T02:05:57;10.50;;;4.93;;
42616;SDS011;28250;52.320;0.360;2023-08-17T02:08:24;7.50;;;4.30;;
42616;SDS011;28250;52.320;0.360;2023-08-17T02:10:52;9.18;;;4.93;;
42616;SDS011;28250;52.320;0.360;2023-08-17T02:13:20;10.25;;;4.60;;
42616;SDS011;28250;52.320;0.360;2023-08-17T02:15:46;8.13;;;4.55;;
42616;SDS011;28250;52.320;0.360;2023-08-17T02:18:13;8.23;;;4.40;;
42616;SDS011;28250;52.320;0.360;2023-08-17T02:20:39;7.45;;;4.03;;
42616;SDS011;28250;52.320;0.360;2023-08-17T02:23:05;11.45;;;4.55;;
42616;SDS011;28250;52.320;0.360;2023-08-17T02:25:31;6.78;;;4.40;;
42616;SDS011;28250;52.320;0.360;2023-08-17T02:28:01;5.47;;;4.10;;
42616;SDS011;28250;52.320;0.360;2023-08-17T02:30:28;9.93;;;4.35;;
42616;SDS011;28250;52.320;0.360;2023-08-17T02:32:57;6.45;;;4.30;;
42616;SDS011;28250;52.320;0.360;2023-08-17T02:35:24;8.27;;;4.68;;
42616;SDS011;28250;52.320;0.360;2023-08-17T02:37:50;10.95;;;4.93;;
42616;SDS011;28250;52.320;0.360;2023-08-17T02:40:17;10.30;;;4.45;;
42616;SDS011;28250;52.320;0.360;2023-08-17T02:42:43;11.07;;;5.97;;
42616;SDS011;28250;52.320;0.360;2023-08-17T02:45:09;10.80;;;5.45;;
42616;SDS011;28250;52.320;0.360;2023-08-17T02:47:35;11.27;;;5.18;;
42616;SDS011;28250;52.320;0.360;2023-08-17T02:50:01;15.20;;;5.88;;
42616;SDS011;28250;52.320;0.360;2023-08-17T02:52:27;9.82;;;5.13;;
42616;SDS011;28250;52.320;0.360;2023-08-17T02:54:53;10.20;;;4.43;;
42616;SDS011;28250;52.320;0.360;2023-08-17T02:57:19;9.18;;;4.97;;
42616;SDS011;28250;52.320;0.360;2023-08-17T02:59:46;9.65;;;4.28;;
42616;SDS011;28250;52.320;0.360;2023-08-17T03:02:12;10.05;;;5.10;;
42616;SDS011;28250;52.320;0.360;2023-08-17T03:04:38;7.90;;;4.25;;
42616;SDS011;28250;52.320;0.360;2023-08-17T03:07:04;7.85;;;3.75;;
42616;SDS011;28250;52.320;0.360;2023-08-17T03:09:30;7.28;;;3.63;;
42616;SDS011;28250;52.320;0.360;2023-08-17T03:11:56;6.95;;;3.90;;
42616;SDS011;28250;52.320;0.360;2023-08-17T03:14:22;6.10;;;3.40;;
42616;SDS011;28250;52.320;0.360;2023-08-17T03:16:48;7.00;;;3.85;;
42616;SDS011;28250;52.320;0.360;2023-08-17T03:19:15;7.38;;;3.78;;
42616;SDS011;28250;52.320;0.360;2023-08-17T03:21:42;6.20;;;3.70;;
42616;SDS011;28250;52.320;0.360;2023-08-17T03:24:09;12.05;;;3.63;;
42616;SDS011;28250;52.320;0.360;2023-08-17T03:26:35;4.57;;;2.70;;
42616;SDS011;28250;52.320;0.360;2023-08-17T03:29:02;8.75;;;3.70;;
42616;SDS011;28250;52.320;0.360;2023-08-17T03:31:28;10.02;;;3.15;;
42616;SDS011;28250;52.320;0.360;2023-08-17T03:33:55;7.10;;;3.45;;
42616;SDS011;28250;52.320;0.360;2023-08-17T03:36:21;8.57;;;3.67;;
42616;SDS011;28250;52.320;0.360;2023-08-17T03:38:48;7.30;;;3.95;;
42616;SDS011;28250;52.320;0.360;2023-08-17T03:41:14;9.02;;;3.78;;
42616;SDS011;28250;52.320;0.360;2023-08-17T03:43:40;10.77;;;4.20;;
42616;SDS011;28250;52.320;0.360;2023-08-17T03:46:06;9.18;;;4.07;;
42616;SDS011;28250;52.320;0.360;2023-08-17T03:48:33;9.15;;;3.72;;
42616;SDS011;28250;52.320;0.360;2023-08-17T03:50:59;8.63;;;4.10;;
42616;SDS011;28250;52.320;0.360;2023-08-17T03:53:27;9.75;;;3.40;;
42616;SDS011;28250;52.320;0.360;2023-08-17T03:55:53;7.00;;;3.97;;
42616;SDS011;28250;52.320;0.360;2023-08-17T03:58:19;7.82;;;3.88;;
42616;SDS011;28250;52.320;0.360;2023-08-17T04:00:48;6.70;;;3.58;;
42616;SDS011;28250;52.320;0.360;2023-08-17T04:03:17;8.95;;;3.60;;
42616;SDS011;28250;52.320;0.360;2023-08-17T04:05:44;7.97;;;3.65;;
42616;SDS011;28250;52.320;0.360;2023-08-17T04:08:10;6.72;;;3.85;;
42616;SDS011;28250;52.320;0.360;2023-08-17T04:10:37;7.38;;;3.92;;
42616;SDS011;28250;52.320;0.360;2023-08-17T04:13:06;10.38;;;4.30;;
42616;SDS011;28250;52.320;0.360;2023-08-17T04:15:32;7.37;;;3.63;;
42616;SDS011;28250;52.320;0.360;2023-08-17T04:17:58;10.65;;;4.65;;
42616;SDS011;28250;52.320;0.360;2023-08-17T04:20:25;8.17;;;3.87;;
42616;SDS011;28250;52.320;0.360;2023-08-17T04:22:51;6.53;;;3.58;;
42616;SDS011;28250;52.320;0.360;2023-08-17T04:25:17;10.00;;;4.10;;
42616;SDS011;28250;52.320;0.360;2023-08-17T04:27:43;8.52;;;4.10;;
42616;SDS011;28250;52.320;0.360;2023-08-17T04:30:09;5.53;;;3.63;;
42616;SDS011;28250;52.320;0.360;2023-08-17T04:32:54;8.93;;;3.78;;
42616;SDS011;28250;52.320;0.360;2023-08-17T04:35:20;12.80;;;4.32;;
42616;SDS011;28250;52.320;0.360;2023-08-17T04:37:47;7.85;;;5.63;;
42616;SDS011;28250;52.320;0.360;2023-08-17T04:40:13;12.07;;;5.93;;
42616;SDS011;28250;52.320;0.360;2023-08-17T04:45:07;10.20;;;5.70;;
42616;SDS011;28250;52.320;0.360;2023-08-17T04:47:40;13.40;;;5.10;;
42616;SDS011;28250;52.320;0.360;2023-08-17T04:50:06;10.15;;;4.78;;
42616;SDS011;28250;52.320;0.360;2023-08-17T04:52:33;10.30;;;4.57;;
42616;SDS011;28250;52.320;0.360;2023-08-17T04:57:29;9.98;;;4.15;;
42616;SDS011;28250;52.320;0.360;2023-08-17T04:59:55;7.65;;;4.47;;
42616;SDS011;28250;52.320;0.360;2023-08-17T05:02:21;7.72;;;4.03;;
42616;SDS011;28250;52.320;0.360;2023-08-17T05:04:47;11.13;;;4.60;;
42616;SDS011;28250;52.320;0.360;2023-08-17T05:07:14;7.95;;;3.78;;
42616;SDS011;28250;52.320;0.360;2023-08-17T05:09:40;6.93;;;3.50;;
42616;SDS011;28250;52.320;0.360;2023-08-17T05:12:06;4.97;;;3.67;;
42616;SDS011;28250;52.320;0.360;2023-08-17T05:14:33;7.20;;;3.90;;
42616;SDS011;28250;52.320;0.360;2023-08-17T05:16:59;5.18;;;3.33;;
42616;SDS011;28250;52.320;0.360;2023-08-17T05:19:25;5.70;;;3.35;;
42616;SDS011;28250;52.320;0.360;2023-08-17T05:21:51;10.80;;;3.97;;
42616;SDS011;28250;52.320;0.360;2023-08-17T05:24:19;10.48;;;4.25;;
42616;SDS011;28250;52.320;0.360;2023-08-17T05:26:46;11.15;;;3.75;;
42616;SDS011;28250;52.320;0.360;2023-08-17T05:31:39;9.25;;;3.80;;
42616;SDS011;28250;52.320;0.360;2023-08-17T05:34:05;6.80;;;3.60;;
42616;SDS011;28250;52.320;0.360;2023-08-17T05:36:33;7.10;;;3.40;;
42616;SDS011;28250;52.320;0.360;2023-08-17T05:38:59;11.63;;;4.05;;
42616;SDS011;28250;52.320;0.360;2023-08-17T05:43:52;8.57;;;3.38;;
42616;SDS011;28250;52.320;0.360;2023-08-17T05:46:18;12.23;;;4.93;;
42616;SDS011;28250;52.320;0.360;2023-08-17T05:48:45;9.48;;;3.95;;
42616;SDS011;28250;52.320;0.360;2023-08-17T05:51:11;14.93;;;4.95;;
42616;SDS011;28250;52.320;0.360;2023-08-17T05:53:37;11.10;;;4.22;;
42616;SDS011;28250;52.320;0.360;2023-08-17T05:56:03;12.50;;;5.22;;
42616;SDS011;28250;52.320;0.360;2023-08-17T05:58:29;10.38;;;4.88;;
42616;SDS011;28250;52.320;0.360;2023-08-17T06:01:03;10.00;;;4.97;;
42616;SDS011;28250;52.320;0.360;2023-08-17T06:03:36;10.13;;;5.18;;
42616;SDS011;28250;52.320;0.360;2023-08-17T06:06:03;12.32;;;4.55;;
42616;SDS011;28250;52.320;0.360;2023-08-17T06:10:56;8.88;;;4.40;;
42616;SDS011;28250;52.320;0.360;2023-08-17T06:13:22;10.18;;;4.53;;
42616;SDS011;28250;52.320;0.360;2023-08-17T06:15:49;12.00;;;4.70;;
42616;SDS011;28250;52.320;0.360;2023-08-17T06:18:15;11.23;;;5.05;;
42616;SDS011;28250;52.320;0.360;2023-08-17T06:20:41;11.57;;;5.65;;
42616;SDS011;28250;52.320;0.360;2023-08-17T06:23:07;11.43;;;5.10;;
42616;SDS011;28250;52.320;0.360;2023-08-17T06:25:34;10.85;;;5.53;;
42616;SDS011;28250;52.320;0.360;2023-08-17T06:28:00;14.27;;;6.40;;
42616;SDS011;28250;52.320;0.360;2023-08-17T06:30:26;10.45;;;5.18;;
42616;SDS011;28250;52.320;0.360;2023-08-17T06:32:52;11.65;;;4.75;;
42616;SDS011;28250;52.320;0.360;2023-08-17T06:35:18;11.43;;;5.47;;
42616;SDS011;28250;52.320;0.360;2023-08-17T06:37:45;10.57;;;4.72;;
42616;SDS011;28250;52.320;0.360;2023-08-17T06:40:10;10.63;;;4.57;;
42616;SDS011;28250;52.320;0.360;2023-08-17T06:42:36;10.85;;;5.05;;
42616;SDS011;28250;52.320;0.360;2023-08-17T06:45:03;12.25;;;4.70;;
42616;SDS011;28250;52.320;0.360;2023-08-17T06:47:31;9.70;;;4.72;;
42616;SDS011;28250;52.320;0.360;2023-08-17T06:49:57;10.30;;;4.30;;
42616;SDS011;28250;52.320;0.360;2023-08-17T06:52:23;9.75;;;4.22;;
42616;SDS011;28250;52.320;0.360;2023-08-17T06:54:50;8.07;;;3.72;;
42616;SDS011;28250;52.320;0.360;2023-08-17T06:57:16;8.25;;;3.30;;
42616;SDS011;28250;52.320;0.360;2023-08-17T06:59:42;6.38;;;2.97;;
42616;SDS011;28250;52.320;0.360;2023-08-17T07:02:11;10.63;;;2.90;;
42616;SDS011;28250;52.320;0.360;2023-08-17T07:04:37;9.65;;;3.30;;
42616;SDS011;28250;52.320;0.360;2023-08-17T07:07:03;7.90;;;3.10;;
42616;SDS011;28250;52.320;0.360;2023-08-17T07:09:29;9.40;;;2.80;;
42616;SDS011;28250;52.320;0.360;2023-08-17T07:11:55;7.68;;;2.33;;
42616;SDS011;28250;52.320;0.360;2023-08-17T07:14:21;6.53;;;2.97;;
42616;SDS011;28250;52.320;0.360;2023-08-17T07:16:47;6.75;;;2.70;;
42616;SDS011;28250;52.320;0.360;2023-08-17T07:19:13;5.40;;;2.40;;
42616;SDS011;28250;52.320;0.360;2023-08-17T07:21:39;6.18;;;2.30;;
42616;SDS011;28250;52.320;0.360;2023-08-17T07:24:13;4.32;;;2.47;;
42616;SDS011;28250;52.320;0.360;2023-08-17T07:26:41;10.88;;;2.95;;
42616;SDS011;28250;52.320;0.360;2023-08-17T07:29:07;7.53;;;2.83;;
42616;SDS011;28250;52.320;0.360;2023-08-17T07:31:33;11.25;;;3.13;;
42616;SDS011;28250;52.320;0.360;2023-08-17T07:34:02;6.80;;;1.92;;
42616;SDS011;28250;52.320;0.360;2023-08-17T07:36:30;8.48;;;3.00;;
42616;SDS011;28250;52.320;0.360;2023-08-17T07:41:24;6.35;;;2.40;;
42616;SDS011;28250;52.320;0.360;2023-08-17T07:43:50;6.57;;;2.50;;
42616;SDS011;28250;52.320;0.360;2023-08-17T07:46:16;6.55;;;2.30;;
42616;SDS011;28250;52.320;0.360;2023-08-17T07:48:42;6.07;;;2.47;;
42616;SDS011;28250;52.320;0.360;2023-08-17T07:51:08;5.20;;;2.58;;
42616;SDS011;28250;52.320;0.360;2023-08-17T07:53:34;5.25;;;2.35;;
42616;SDS011;28250;52.320;0.360;2023-08-17T07:56:00;6.55;;;2.22;;
42616;SDS011;28250;52.320;0.360;2023-08-17T07:58:26;5.50;;;2.38;;
42616;SDS011;28250;52.320;0.360;2023-08-17T08:00:52;7.85;;;2.22;;
42616;SDS011;28250;52.320;0.360;2023-08-17T08:03:18;6.22;;;2.20;;
42616;SDS011;28250;52.320;0.360;2023-08-17T08:05:44;3.80;;;2.10;;
42616;SDS011;28250;52.320;0.360;2023-08-17T08:08:11;9.13;;;2.55;;
42616;SDS011;28250;52.320;0.360;2023-08-17T08:10:37;5.85;;;2.20;;
42616;SDS011;28250;52.320;0.360;2023-08-17T08:13:03;6.30;;;2.35;;
42616;SDS011;28250;52.320;0.360;2023-08-17T08:15:29;5.17;;;2.33;;
42616;SDS011;28250;52.320;0.360;2023-08-17T08:17:55;5.65;;;2.30;;
42616;SDS011;28250;52.320;0.360;2023-08-17T08:20:21;6.78;;;2.60;;
42616;SDS011;28250;52.320;0.360;2023-08-17T08:22:47;3.90;;;2.13;;
42616;SDS011;28250;52.320;0.360;2023-08-17T08:25:13;4.80;;;2.00;;
42616;SDS011;28250;52.320;0.360;2023-08-17T08:27:39;3.95;;;2.20;;
42616;SDS011;28250;52.320;0.360;2023-08-17T08:30:06;7.15;;;1.88;;
42616;SDS011;28250;52.320;0.360;2023-08-17T08:32:33;4.03;;;1.73;;
42616;SDS011;28250;52.320;0.360;2023-08-17T08:34:59;8.52;;;2.70;;
42616;SDS011;28250;52.320;0.360;2023-08-17T08:37:25;4.85;;;1.88;;
42616;SDS011;28250;52.320;0.360;2023-08-17T08:39:51;3.00;;;1.30;;
42616;SDS011;28250;52.320;0.360;2023-08-17T08:42:20;5.60;;;1.70;;
42616;SDS011;28250;52.320;0.360;2023-08-17T08:44:47;5.18;;;2.10;;
42616;SDS011;28250;52.320;0.360;2023-08-17T08:47:15;7.88;;;2.17;;
42616;SDS011;28250;52.320;0.360;2023-08-17T08:52:35;4.30;;;1.77;;
42616;SDS011;28250;52.320;0.360;2023-08-17T08:55:11;4.50;;;1.83;;
42616;SDS011;28250;52.320;0.360;2023-08-17T08:57:43;10.13;;;2.08;;
42616;SDS011;28250;52.320;0.360;2023-08-17T09:00:11;3.40;;;1.75;;
42616;SDS011;28250;52.320;0.360;2023-08-17T09:05:05;5.45;;;2.25;;
42616;SDS011;28250;52.320;0.360;2023-08-17T09:07:35;5.43;;;1.77;;
42616;SDS011;28250;52.320;0.360;2023-08-17T09:10:04;3.75;;;1.60;;
42616;SDS011;28250;52.320;0.360;2023-08-17T09:12:30;4.03;;;1.52;;
42616;SDS011;28250;52.320;0.360;2023-08-17T09:14:57;5.30;;;1.80;;
42616;SDS011;28250;52.320;0.360;2023-08-17T09:17:23;3.28;;;2.13;;
42616;SDS011;28250;52.320;0.360;2023-08-17T09:19:53;4.05;;;1.65;;
42616;SDS011;28250;52.320;0.360;2023-08-17T09:25:09;2.25;;;1.35;;
42616;SDS011;28250;52.320;0.360;2023-08-17T09:27:37;3.10;;;1.55;;
42616;SDS011;28250;52.320;0.360;2023-08-17T09:32:35;6.03;;;1.73;;
42616;SDS011;28250;52.320;0.360;2023-08-17T09:35:02;6.00;;;1.58;;
42616;SDS011;28250;52.320;0.360;2023-08-17T09:37:30;2.55;;;1.73;;
42616;SDS011;28250;52.320;0.360;2023-08-17T09:42:24;3.55;;;1.40;;
42616;SDS011;28250;52.320;0.360;2023-08-17T09:44:52;7.38;;;1.30;;
42616;SDS011;28250;52.320;0.360;2023-08-17T09:47:19;5.25;;;1.60;;
42616;SDS011;28250;52.320;0.360;2023-08-17T09:49:49;2.10;;;1.58;;
42616;SDS011;28250;52.320;0.360;2023-08-17T09:52:19;4.28;;;1.52;;
42616;SDS011;28250;52.320;0.360;2023-08-17T09:54:46;3.90;;;1.35;;
42616;SDS011;28250;52.320;0.360;2023-08-17T09:57:13;5.10;;;1.63;;
42616;SDS011;28250;52.320;0.360;2023-08-17T09:59:40;2.38;;;1.17;;
42616;SDS011;28250;52.320;0.360;2023-08-17T10:02:19;3.03;;;1.48;;
42616;SDS011;28250;52.320;0.360;2023-08-17T10:04:49;2.97;;;1.42;;
42616;SDS011;28250;52.320;0.360;2023-08-17T10:07:18;2.83;;;1.48;;
42616;SDS011;28250;52.320;0.360;2023-08-17T10:09:49;3.40;;;1.95;;
42616;SDS011;28250;52.320;0.360;2023-08-17T10:12:27;6.20;;;1.67;;
42616;SDS011;28250;52.320;0.360;2023-08-17T10:15:02;5.47;;;1.80;;
42616;SDS011;28250;52.320;0.360;2023-08-17T10:17:55;4.68;;;1.45;;
42616;SDS011;28250;52.320;0.360;2023-08-17T10:20:31;3.28;;;1.50;;
42616;SDS011;28250;52.320;0.360;2023-08-17T10:23:08;4.80;;;1.25;;
42616;SDS011;28250;52.320;0.360;2023-08-17T10:25:40;2.65;;;1.33;;
42616;SDS011;28250;52.320;0.360;2023-08-17T10:30:37;3.05;;;1.23;;
42616;SDS011;28250;52.320;0.360;2023-08-17T10:33:07;2.47;;;1.27;;
42616;SDS011;28250;52.320;0.360;2023-08-17T10:35:35;3.20;;;1.27;;
42616;SDS011;28250;52.320;0.360;2023-08-17T10:38:03;2.83;;;1.38;;
42616;SDS011;28250;52.320;0.360;2023-08-17T10:40:36;3.00;;;1.20;;
42616;SDS011;28250;52.320;0.360;2023-08-17T10:43:06;2.58;;;1.48;;
42616;SDS011;28250;52.320;0.360;2023-08-17T10:45:33;6.75;;;1.45;;
42616;SDS011;28250;52.320;0.360;2023-08-17T10:50:34;2.38;;;1.20;;
42616;SDS011;28250;52.320;0.360;2023-08-17T10:53:09;2.35;;;1.25;;
42616;SDS011;28250;52.320;0.360;2023-08-17T10:55:41;2.92;;;1.00;;
42616;SDS011;28250;52.320;0.360;2023-08-17T10:58:10;2.60;;;1.40;;
42616;SDS011;28250;52.320;0.360;2023-08-17T11:00:37;2.33;;;1.50;;
42616;SDS011;28250;52.320;0.360;2023-08-17T11:03:08;2.38;;;1.13;;
42616;SDS011;28250;52.320;0.360;2023-08-17T11:08:11;3.92;;;1.15;;
42616;SDS011;28250;52.320;0.360;2023-08-17T11:10:59;8.00;;;1.40;;
42616;SDS011;28250;52.320;0.360;2023-08-17T11:13:40;2.08;;;0.90;;
42616;SDS011;28250;52.320;0.360;2023-08-17T11:16:12;4.95;;;1.17;;
42616;SDS011;28250;52.320;0.360;2023-08-17T11:18:39;1.85;;;1.08;;
42616;SDS011;28250;52.320;0.360;2023-08-17T11:21:09;2.10;;;1.23;;
42616;SDS011;28250;52.320;0.360;2023-08-17T11:23:36;1.95;;;1.00;;
42616;SDS011;28250;52.320;0.360;2023-08-17T11:26:03;3.90;;;1.10;;
42616;SDS011;28250;52.320;0.360;2023-08-17T11:31:05;5.05;;;1.27;;
42616;SDS011;28250;52.320;0.360;2023-08-17T11:33:34;5.25;;;2.15;;
42616;SDS011;28250;52.320;0.360;2023-08-17T11:36:03;3.10;;;1.50;;
42616;SDS011;28250;52.320;0.360;2023-08-17T11:38:34;3.67;;;1.67;;
42616;SDS011;28250;52.320;0.360;2023-08-17T11:41:03;3.15;;;1.55;;
42616;SDS011;28250;52.320;0.360;2023-08-17T11:43:32;3.63;;;1.13;;
42616;SDS011;28250;52.320;0.360;2023-08-17T11:45:59;3.45;;;1.30;;
42616;SDS011;28250;52.320;0.360;2023-08-17T11:48:28;4.28;;;1.77;;
42616;SDS011;28250;52.320;0.360;2023-08-17T11:50:55;2.20;;;1.05;;
42616;SDS011;28250;52.320;0.360;2023-08-17T11:53:23;2.80;;;1.08;;
42616;SDS011;28250;52.320;0.360;2023-08-17T11:55:50;2.08;;;1.08;;
42616;SDS011;28250;52.320;0.360;2023-08-17T11:58:16;2.25;;;1.27;;
42616;SDS011;28250;52.320;0.360;2023-08-17T12:00:42;3.75;;;1.30;;
42616;SDS011;28250;52.320;0.360;2023-08-17T12:03:13;2.05;;;0.80;;
42616;SDS011;28250;52.320;0.360;2023-08-17T12:05:43;1.52;;;1.00;;
42616;SDS011;28250;52.320;0.360;2023-08-17T12:08:10;2.60;;;0.75;;
42616;SDS011;28250;52.320;0.360;2023-08-17T12:10:39;1.40;;;0.90;;
42616;SDS011;28250;52.320;0.360;2023-08-17T12:13:06;1.97;;;1.07;;
42616;SDS011;28250;52.320;0.360;2023-08-17T12:15:36;2.72;;;0.90;;
42616;SDS011;28250;52.320;0.360;2023-08-17T12:18:03;4.45;;;1.73;;
42616;SDS011;28250;52.320;0.360;2023-08-17T12:20:31;1.90;;;0.73;;
42616;SDS011;28250;52.320;0.360;2023-08-17T12:23:01;1.70;;;0.90;;
42616;SDS011;28250;52.320;0.360;2023-08-17T12:25:28;1.05;;;0.75;;
42616;SDS011;28250;52.320;0.360;2023-08-17T12:27:57;2.53;;;1.10;;
42616;SDS011;28250;52.320;0.360;2023-08-17T12:30:26;1.90;;;1.05;;
42616;SDS011;28250;52.320;0.360;2023-08-17T12:32:58;3.53;;;1.10;;
42616;SDS011;28250;52.320;0.360;2023-08-17T12:35:25;3.08;;;0.82;;
42616;SDS011;28250;52.320;0.360;2023-08-17T12:37:54;3.30;;;0.80;;
42616;SDS011;28250;52.320;0.360;2023-08-17T12:40:21;1.60;;;0.73;;
42616;SDS011;28250;52.320;0.360;2023-08-17T12:45:14;2.80;;;0.93;;
42616;SDS011;28250;52.320;0.360;2023-08-17T12:50:07;1.38;;;0.93;;
42616;SDS011;28250;52.320;0.360;2023-08-17T12:55:00;2.35;;;0.90;;
42616;SDS011;28250;52.320;0.360;2023-08-17T12:57:26;2.42;;;0.80;;
42616;SDS011;28250;52.320;0.360;2023-08-17T12:59:52;6.38;;;1.05;;
42616;SDS011;28250;52.320;0.360;2023-08-17T13:02:22;3.67;;;0.95;;
42616;SDS011;28250;52.320;0.360;2023-08-17T13:04:48;3.50;;;0.98;;
42616;SDS011;28250;52.320;0.360;2023-08-17T13:07:14;4.38;;;1.10;;
42616;SDS011;28250;52.320;0.360;2023-08-17T13:09:41;2.60;;;0.93;;
42616;SDS011;28250;52.320;0.360;2023-08-17T13:12:07;1.80;;;0.80;;
42616;SDS011;28250;52.320;0.360;2023-08-17T13:14:33;2.93;;;1.13;;
42616;SDS011;28250;52.320;0.360;2023-08-17T13:16:59;3.50;;;0.90;;
42616;SDS011;28250;52.320;0.360;2023-08-17T13:19:25;3.55;;;1.00;;
42616;SDS011;28250;52.320;0.360;2023-08-17T13:21:51;3.33;;;0.93;;
42616;SDS011;28250;52.320;0.360;2023-08-17T13:24:18;2.60;;;1.13;;
42616;SDS011;28250;52.320;0.360;2023-08-17T13:26:44;1.20;;;0.90;;
42616;SDS011;28250;52.320;0.360;2023-08-17T13:29:10;3.67;;;1.00;;
42616;SDS011;28250;52.320;0.360;2023-08-17T13:31:36;2.43;;;1.27;;
42616;SDS011;28250;52.320;0.360;2023-08-17T13:34:02;2.70;;;1.13;;
42616;SDS011;28250;52.320;0.360;2023-08-17T13:36:28;6.25;;;1.10;;
42616;SDS011;28250;52.320;0.360;2023-08-17T13:38:55;4.82;;;1.10;;
42616;SDS011;28250;52.320;0.360;2023-08-17T13:41:21;1.13;;;0.70;;
42616;SDS011;28250;52.320;0.360;2023-08-17T13:43:49;2.35;;;1.05;;
42616;SDS011;28250;52.320;0.360;2023-08-17T13:46:15;2.58;;;1.42;;
42616;SDS011;28250;52.320;0.360;2023-08-17T13:48:41;3.53;;;1.00;;
42616;SDS011;28250;52.320;0.360;2023-08-17T13:51:07;6.50;;;1.20;;
42616;SDS011;28250;52.320;0.360;2023-08-17T13:53:33;3.00;;;1.07;;
42616;SDS011;28250;52.320;0.360;2023-08-17T13:55:59;1.40;;;0.98;;
42616;SDS011;28250;52.320;0.360;2023-08-17T13:58:25;3.93;;;1.07;;
42616;SDS011;28250;52.320;0.360;2023-08-17T14:00:51;4.07;;;1.05;;
42616;SDS011;28250;52.320;0.360;2023-08-17T14:03:17;2.37;;;1.10;;
42616;SDS011;28250;52.320;0.360;2023-08-17T14:05:43;2.00;;;0.90;;
42616;SDS011;28250;52.320;0.360;2023-08-17T14:08:09;2.15;;;0.73;;
42616;SDS011;28250;52.320;0.360;2023-08-17T14:10:36;1.35;;;0.80;;
42616;SDS011;28250;52.320;0.360;2023-08-17T14:13:02;1.60;;;0.87;;
42616;SDS011;28250;52.320;0.360;2023-08-17T14:17:56;3.05;;;0.95;;
42616;SDS011;28250;52.320;0.360;2023-08-17T14:20:22;2.67;;;0.87;;
42616;SDS011;28250;52.320;0.360;2023-08-17T14:22:48;2.80;;;0.90;;
42616;SDS011;28250;52.320;0.360;2023-08-17T14:25:14;4.65;;;0.90;;
42616;SDS011;28250;52.320;0.360;2023-08-17T14:27:41;2.83;;;0.80;;
42616;SDS011;28250;52.320;0.360;2023-08-17T14:30:07;1.95;;;0.90;;
42616;SDS011;28250;52.320;0.360;2023-08-17T14:32:33;2.78;;;0.90;;
42616;SDS011;28250;52.320;0.360;2023-08-17T14:34:59;3.45;;;0.80;;
42616;SDS011;28250;52.320;0.360;2023-08-17T14:37:25;2.42;;;0.70;;
42616;SDS011;28250;52.320;0.360;2023-08-17T14:39:51;1.95;;;0.75;;
42616;SDS011;28250;52.320;0.360;2023-08-17T14:42:17;2.77;;;0.93;;
42616;SDS011;28250;52.320;0.360;2023-08-17T14:44:43;2.30;;;0.82;;
42616;SDS011;28250;52.320;0.360;2023-08-17T14:47:09;3.08;;;0.98;;
42616;SDS011;28250;52.320;0.360;2023-08-17T14:49:35;1.88;;;0.75;;
42616;SDS011;28250;52.320;0.360;2023-08-17T14:52:01;1.90;;;0.60;;
42616;SDS011;28250;52.320;0.360;2023-08-17T14:54:27;1.23;;;0.70;;
42616;SDS011;28250;52.320;0.360;2023-08-17T14:56:53;1.00;;;0.70;;
42616;SDS011;28250;52.320;0.360;2023-08-17T14:59:19;1.33;;;0.80;;
42616;SDS011;28250;52.320;0.360;2023-08-17T15:01:45;2.50;;;0.95;;
42616;SDS011;28250;52.320;0.360;2023-08-17T15:04:11;4.27;;;0.70;;
42616;SDS011;28250;52.320;0.360;2023-08-17T15:06:37;2.92;;;1.05;;
42616;SDS011;28250;52.320;0.360;2023-08-17T15:09:03;1.30;;;0.75;;
42616;SDS011;28250;52.320;0.360;2023-08-17T15:11:30;1.13;;;0.70;;
42616;SDS011;28250;52.320;0.360;2023-08-17T15:13:56;3.95;;;0.70;;
42616;SDS011;28250;52.320;0.360;2023-08-17T15:16:22;1.70;;;0.70;;
42616;SDS011;28250;52.320;0.360;2023-08-17T15:18:52;1.08;;;0.68;;
42616;SDS011;28250;52.320;0.360;2023-08-17T15:21:18;2.17;;;0.75;;
42616;SDS011;28250;52.320;0.360;2023-08-17T15:23:44;2.90;;;0.70;;
42616;SDS011;28250;52.320;0.360;2023-08-17T15:26:10;4.25;;;0.90;;
42616;SDS011;28250;52.320;0.360;2023-08-17T15:28:38;2.53;;;0.80;;
42616;SDS011;28250;52.320;0.360;2023-08-17T15:31:08;1.48;;;0.80;;
42616;SDS011;28250;52.320;0.360;2023-08-17T15:33:41;4.15;;;0.70;;
42616;SDS011;28250;52.320;0.360;2023-08-17T15:36:07;1.17;;;0.50;;
42616;SDS011;28250;52.320;0.360;2023-08-17T15:38:33;2.10;;;0.73;;
42616;SDS011;28250;52.320;0.360;2023-08-17T15:40:59;3.30;;;1.00;;
42616;SDS011;28250;52.320;0.360;2023-08-17T15:43:26;2.30;;;0.70;;